sensor_id;sensor_type;location;lat;lon;timestamp;P1;durP1;ratioP1;P2;durP2;ratioP2
29916;SDS011;16786;49.466;11.068;2022-07-12T00:00:00;3.63;;;1.63;;
29916;SDS011;16786;49.466;11.068;2022-07-12T00:02:30;2.72;;;1.52;;
29916;SDS011;16786;49.466;11.068;2022-07-12T00:04:58;2.78;;;1.45;;
29916;SDS011;16786;49.466;11.068;2022-07-12T00:07:26;2.40;;;1.40;;
29916;SDS011;16786;49.466;11.068;2022-07-12T00:09:56;2.05;;;1.23;;
29916;SDS011;16786;49.466;11.068;2022-07-12T00:12:23;3.92;;;1.50;;
29916;SDS011;16786;49.466;11.068;2022-07-12T00:14:50;4.03;;;1.63;;
29916;SDS011;16786;49.466;11.068;2022-07-12T00:17:18;3.33;;;1.30;;
29916;SDS011;16786;49.466;11.068;2022-07-12T00:19:45;4.07;;;1.73;;
29916;SDS011;16786;49.466;11.068;2022-07-12T00:22:13;3.15;;;1.70;;
29916;SDS011;16786;49.466;11.068;2022-07-12T00:24:40;2.42;;;1.27;;
29916;SDS011;16786;49.466;11.068;2022-07-12T00:27:07;4.97;;;1.40;;
29916;SDS011;16786;49.466;11.068;2022-07-12T00:29:35;5.57;;;1.45;;
29916;SDS011;16786;49.466;11.068;2022-07-12T00:32:02;3.80;;;1.80;;
29916;SDS011;16786;49.466;11.068;2022-07-12T00:34:30;2.72;;;1.55;;
29916;SDS011;16786;49.466;11.068;2022-07-12T00:36:57;3.55;;;1.27;;
29916;SDS011;16786;49.466;11.068;2022-07-12T00:39:25;3.25;;;1.80;;
29916;SDS011;16786;49.466;11.068;2022-07-12T00:41:52;2.72;;;1.60;;
29916;SDS011;16786;49.466;11.068;2022-07-12T00:44:20;2.10;;;1.42;;
29916;SDS011;16786;49.466;11.068;2022-07-12T00:46:47;3.10;;;1.60;;
29916;SDS011;16786;49.466;11.068;2022-07-12T00:49:14;4.80;;;1.73;;
29916;SDS011;16786;49.466;11.068;2022-07-12T00:51:42;5.75;;;2.80;;
29916;SDS011;16786;49.466;11.068;2022-07-12T00:54:10;4.30;;;2.33;;
29916;SDS011;16786;49.466;11.068;2022-07-12T00:56:37;3.20;;;2.08;;
29916;SDS011;16786;49.466;11.068;2022-07-12T00:59:05;4.20;;;2.30;;
29916;SDS011;16786;49.466;11.068;2022-07-12T01:01:32;3.47;;;1.73;;
29916;SDS011;16786;49.466;11.068;2022-07-12T01:04:00;7.90;;;1.60;;
29916;SDS011;16786;49.466;11.068;2022-07-12T01:06:29;3.95;;;2.08;;
29916;SDS011;16786;49.466;11.068;2022-07-12T01:08:58;4.47;;;2.53;;
29916;SDS011;16786;49.466;11.068;2022-07-12T01:11:26;5.05;;;2.40;;
29916;SDS011;16786;49.466;11.068;2022-07-12T01:13:53;3.50;;;2.15;;
29916;SDS011;16786;49.466;11.068;2022-07-12T01:16:21;4.80;;;3.05;;
29916;SDS011;16786;49.466;11.068;2022-07-12T01:18:49;3.88;;;2.63;;
29916;SDS011;16786;49.466;11.068;2022-07-12T01:21:18;6.10;;;2.80;;
29916;SDS011;16786;49.466;11.068;2022-07-12T01:23:48;4.15;;;2.45;;
29916;SDS011;16786;49.466;11.068;2022-07-12T01:26:17;4.53;;;2.53;;
29916;SDS011;16786;49.466;11.068;2022-07-12T01:28:44;3.85;;;2.35;;
29916;SDS011;16786;49.466;11.068;2022-07-12T01:31:13;4.53;;;2.63;;
29916;SDS011;16786;49.466;11.068;2022-07-12T01:33:40;4.07;;;2.60;;
29916;SDS011;16786;49.466;11.068;2022-07-12T01:36:08;3.90;;;2.40;;
29916;SDS011;16786;49.466;11.068;2022-07-12T01:38:35;3.63;;;2.30;;
29916;SDS011;16786;49.466;11.068;2022-07-12T01:41:03;4.15;;;2.55;;
29916;SDS011;16786;49.466;11.068;2022-07-12T01:43:31;4.03;;;2.38;;
29916;SDS011;16786;49.466;11.068;2022-07-12T01:45:58;5.75;;;2.92;;
29916;SDS011;16786;49.466;11.068;2022-07-12T01:48:28;4.07;;;2.70;;
29916;SDS011;16786;49.466;11.068;2022-07-12T01:50:56;4.55;;;2.50;;
29916;SDS011;16786;49.466;11.068;2022-07-12T01:53:23;6.60;;;2.85;;
29916;SDS011;16786;49.466;11.068;2022-07-12T01:55:50;5.15;;;3.08;;
29916;SDS011;16786;49.466;11.068;2022-07-12T01:58:18;5.32;;;3.10;;
29916;SDS011;16786;49.466;11.068;2022-07-12T02:00:47;4.60;;;3.10;;
29916;SDS011;16786;49.466;11.068;2022-07-12T02:03:18;6.13;;;2.90;;
29916;SDS011;16786;49.466;11.068;2022-07-12T02:05:46;3.97;;;2.47;;
29916;SDS011;16786;49.466;11.068;2022-07-12T02:08:14;3.90;;;2.30;;
29916;SDS011;16786;49.466;11.068;2022-07-12T02:10:41;4.72;;;2.58;;
29916;SDS011;16786;49.466;11.068;2022-07-12T02:13:10;4.35;;;2.42;;
29916;SDS011;16786;49.466;11.068;2022-07-12T02:15:37;3.70;;;2.33;;
29916;SDS011;16786;49.466;11.068;2022-07-12T02:18:05;3.97;;;2.55;;
29916;SDS011;16786;49.466;11.068;2022-07-12T02:20:32;4.35;;;2.65;;
29916;SDS011;16786;49.466;11.068;2022-07-12T02:22:59;5.18;;;2.65;;
29916;SDS011;16786;49.466;11.068;2022-07-12T02:25:27;5.00;;;2.53;;
29916;SDS011;16786;49.466;11.068;2022-07-12T02:27:54;3.85;;;2.42;;
29916;SDS011;16786;49.466;11.068;2022-07-12T02:30:21;4.85;;;2.83;;
29916;SDS011;16786;49.466;11.068;2022-07-12T02:32:49;4.45;;;2.90;;
29916;SDS011;16786;49.466;11.068;2022-07-12T02:35:16;6.20;;;2.70;;
29916;SDS011;16786;49.466;11.068;2022-07-12T02:37:44;5.57;;;3.10;;
29916;SDS011;16786;49.466;11.068;2022-07-12T02:40:14;3.70;;;2.58;;
29916;SDS011;16786;49.466;11.068;2022-07-12T02:43:00;6.00;;;3.15;;
29916;SDS011;16786;49.466;11.068;2022-07-12T02:45:28;4.90;;;3.30;;
29916;SDS011;16786;49.466;11.068;2022-07-12T02:47:55;6.10;;;3.25;;
29916;SDS011;16786;49.466;11.068;2022-07-12T02:50:22;4.40;;;2.92;;
29916;SDS011;16786;49.466;11.068;2022-07-12T02:52:50;6.70;;;3.38;;
29916;SDS011;16786;49.466;11.068;2022-07-12T02:55:17;4.45;;;2.80;;
29916;SDS011;16786;49.466;11.068;2022-07-12T02:57:45;3.92;;;2.50;;
29916;SDS011;16786;49.466;11.068;2022-07-12T03:00:12;4.45;;;3.03;;
29916;SDS011;16786;49.466;11.068;2022-07-12T03:02:40;4.55;;;2.90;;
29916;SDS011;16786;49.466;11.068;2022-07-12T03:05:07;4.25;;;2.90;;
29916;SDS011;16786;49.466;11.068;2022-07-12T03:07:35;6.38;;;3.15;;
29916;SDS011;16786;49.466;11.068;2022-07-12T03:10:03;5.97;;;3.63;;
29916;SDS011;16786;49.466;11.068;2022-07-12T03:12:32;6.10;;;3.17;;
29916;SDS011;16786;49.466;11.068;2022-07-12T03:15:00;4.85;;;3.20;;
29916;SDS011;16786;49.466;11.068;2022-07-12T03:17:28;5.60;;;3.28;;
29916;SDS011;16786;49.466;11.068;2022-07-12T03:19:55;4.68;;;3.40;;
29916;SDS011;16786;49.466;11.068;2022-07-12T03:22:22;5.07;;;3.60;;
29916;SDS011;16786;49.466;11.068;2022-07-12T03:24:50;5.63;;;3.45;;
29916;SDS011;16786;49.466;11.068;2022-07-12T03:27:17;5.70;;;3.30;;
29916;SDS011;16786;49.466;11.068;2022-07-12T03:29:45;5.05;;;3.05;;
29916;SDS011;16786;49.466;11.068;2022-07-12T03:32:12;6.18;;;3.78;;
29916;SDS011;16786;49.466;11.068;2022-07-12T03:34:39;5.20;;;3.75;;
29916;SDS011;16786;49.466;11.068;2022-07-12T03:37:07;6.10;;;3.35;;
29916;SDS011;16786;49.466;11.068;2022-07-12T03:39:34;4.97;;;3.50;;
29916;SDS011;16786;49.466;11.068;2022-07-12T03:42:01;4.78;;;3.13;;
29916;SDS011;16786;49.466;11.068;2022-07-12T03:44:29;5.25;;;3.45;;
29916;SDS011;16786;49.466;11.068;2022-07-12T03:46:57;7.82;;;4.78;;
29916;SDS011;16786;49.466;11.068;2022-07-12T03:49:25;6.15;;;4.40;;
29916;SDS011;16786;49.466;11.068;2022-07-12T03:51:52;7.18;;;4.15;;
29916;SDS011;16786;49.466;11.068;2022-07-12T03:54:20;7.75;;;3.17;;
29916;SDS011;16786;49.466;11.068;2022-07-12T03:56:47;5.93;;;3.70;;
29916;SDS011;16786;49.466;11.068;2022-07-12T03:59:33;11.65;;;3.53;;
29916;SDS011;16786;49.466;11.068;2022-07-12T04:02:07;6.70;;;3.72;;
29916;SDS011;16786;49.466;11.068;2022-07-12T04:04:34;4.57;;;2.90;;
29916;SDS011;16786;49.466;11.068;2022-07-12T04:07:02;4.85;;;3.00;;
29916;SDS011;16786;49.466;11.068;2022-07-12T04:09:30;6.43;;;3.20;;
29916;SDS011;16786;49.466;11.068;2022-07-12T04:11:57;4.10;;;3.00;;
29916;SDS011;16786;49.466;11.068;2022-07-12T04:14:24;8.48;;;3.63;;
29916;SDS011;16786;49.466;11.068;2022-07-12T04:16:51;5.28;;;3.13;;
29916;SDS011;16786;49.466;11.068;2022-07-12T04:19:19;4.43;;;2.80;;
29916;SDS011;16786;49.466;11.068;2022-07-12T04:21:50;3.78;;;2.42;;
29916;SDS011;16786;49.466;11.068;2022-07-12T04:24:17;4.53;;;2.80;;
29916;SDS011;16786;49.466;11.068;2022-07-12T04:26:45;5.25;;;2.70;;
29916;SDS011;16786;49.466;11.068;2022-07-12T04:29:12;4.32;;;2.90;;
29916;SDS011;16786;49.466;11.068;2022-07-12T04:31:39;5.63;;;2.85;;
29916;SDS011;16786;49.466;11.068;2022-07-12T04:34:06;5.53;;;2.92;;
29916;SDS011;16786;49.466;11.068;2022-07-12T04:36:34;3.95;;;2.67;;
29916;SDS011;16786;49.466;11.068;2022-07-12T04:39:02;4.63;;;3.05;;
29916;SDS011;16786;49.466;11.068;2022-07-12T04:41:30;4.93;;;3.15;;
29916;SDS011;16786;49.466;11.068;2022-07-12T04:43:57;4.03;;;2.60;;
29916;SDS011;16786;49.466;11.068;2022-07-12T04:46:24;4.28;;;2.60;;
29916;SDS011;16786;49.466;11.068;2022-07-12T04:48:52;8.55;;;3.00;;
29916;SDS011;16786;49.466;11.068;2022-07-12T04:51:19;6.35;;;3.00;;
29916;SDS011;16786;49.466;11.068;2022-07-12T04:53:46;6.85;;;3.20;;
29916;SDS011;16786;49.466;11.068;2022-07-12T04:56:13;4.78;;;3.05;;
29916;SDS011;16786;49.466;11.068;2022-07-12T04:58:41;5.63;;;2.72;;
29916;SDS011;16786;49.466;11.068;2022-07-12T05:01:08;4.82;;;2.88;;
29916;SDS011;16786;49.466;11.068;2022-07-12T05:03:35;4.32;;;2.83;;
29916;SDS011;16786;49.466;11.068;2022-07-12T05:06:03;5.05;;;2.80;;
29916;SDS011;16786;49.466;11.068;2022-07-12T05:08:31;5.10;;;2.47;;
29916;SDS011;16786;49.466;11.068;2022-07-12T05:10:58;6.55;;;3.15;;
29916;SDS011;16786;49.466;11.068;2022-07-12T05:13:25;6.28;;;2.88;;
29916;SDS011;16786;49.466;11.068;2022-07-12T05:15:52;6.45;;;3.25;;
29916;SDS011;16786;49.466;11.068;2022-07-12T05:18:20;5.53;;;2.65;;
29916;SDS011;16786;49.466;11.068;2022-07-12T05:20:47;4.35;;;2.50;;
29916;SDS011;16786;49.466;11.068;2022-07-12T05:23:18;3.90;;;2.63;;
29916;SDS011;16786;49.466;11.068;2022-07-12T05:25:45;4.25;;;2.50;;
29916;SDS011;16786;49.466;11.068;2022-07-12T05:28:16;5.38;;;2.95;;
29916;SDS011;16786;49.466;11.068;2022-07-12T05:30:43;4.78;;;3.00;;
29916;SDS011;16786;49.466;11.068;2022-07-12T05:33:11;3.45;;;2.47;;
29916;SDS011;16786;49.466;11.068;2022-07-12T05:35:39;3.92;;;2.70;;
29916;SDS011;16786;49.466;11.068;2022-07-12T05:38:06;5.00;;;2.63;;
29916;SDS011;16786;49.466;11.068;2022-07-12T05:40:33;5.45;;;2.75;;
29916;SDS011;16786;49.466;11.068;2022-07-12T05:43:01;4.60;;;2.75;;
29916;SDS011;16786;49.466;11.068;2022-07-12T05:45:28;4.13;;;2.70;;
29916;SDS011;16786;49.466;11.068;2022-07-12T05:47:56;4.10;;;2.60;;
29916;SDS011;16786;49.466;11.068;2022-07-12T05:50:23;5.30;;;2.80;;
29916;SDS011;16786;49.466;11.068;2022-07-12T05:52:50;3.85;;;2.03;;
29916;SDS011;16786;49.466;11.068;2022-07-12T05:55:36;5.28;;;2.70;;
29916;SDS011;16786;49.466;11.068;2022-07-12T05:58:03;5.55;;;3.38;;
29916;SDS011;16786;49.466;11.068;2022-07-12T06:00:31;5.82;;;2.95;;
29916;SDS011;16786;49.466;11.068;2022-07-12T06:02:59;3.95;;;2.33;;
29916;SDS011;16786;49.466;11.068;2022-07-12T06:05:26;5.25;;;2.88;;
29916;SDS011;16786;49.466;11.068;2022-07-12T06:07:54;4.25;;;2.67;;
29916;SDS011;16786;49.466;11.068;2022-07-12T06:10:21;3.78;;;2.33;;
29916;SDS011;16786;49.466;11.068;2022-07-12T06:12:48;6.80;;;2.60;;
29916;SDS011;16786;49.466;11.068;2022-07-12T06:15:16;5.20;;;2.50;;
29916;SDS011;16786;49.466;11.068;2022-07-12T06:17:44;7.15;;;2.47;;
29916;SDS011;16786;49.466;11.068;2022-07-12T06:20:11;5.60;;;2.28;;
29916;SDS011;16786;49.466;11.068;2022-07-12T06:22:38;4.80;;;2.40;;
29916;SDS011;16786;49.466;11.068;2022-07-12T06:25:06;7.20;;;2.28;;
29916;SDS011;16786;49.466;11.068;2022-07-12T06:27:54;5.68;;;2.03;;
29916;SDS011;16786;49.466;11.068;2022-07-12T06:30:21;3.72;;;2.00;;
29916;SDS011;16786;49.466;11.068;2022-07-12T06:32:49;4.90;;;1.92;;
29916;SDS011;16786;49.466;11.068;2022-07-12T06:35:17;4.38;;;1.90;;
29916;SDS011;16786;49.466;11.068;2022-07-12T06:37:44;3.88;;;2.10;;
29916;SDS011;16786;49.466;11.068;2022-07-12T06:40:13;2.90;;;1.50;;
29916;SDS011;16786;49.466;11.068;2022-07-12T06:42:43;4.20;;;2.20;;
29916;SDS011;16786;49.466;11.068;2022-07-12T06:45:11;3.63;;;2.20;;
29916;SDS011;16786;49.466;11.068;2022-07-12T06:47:38;5.45;;;1.92;;
29916;SDS011;16786;49.466;11.068;2022-07-12T06:50:05;3.35;;;1.77;;
29916;SDS011;16786;49.466;11.068;2022-07-12T06:52:33;8.00;;;1.77;;
29916;SDS011;16786;49.466;11.068;2022-07-12T06:55:00;6.90;;;1.73;;
29916;SDS011;16786;49.466;11.068;2022-07-12T06:57:27;3.88;;;1.77;;
29916;SDS011;16786;49.466;11.068;2022-07-12T06:59:56;3.45;;;1.83;;
29916;SDS011;16786;49.466;11.068;2022-07-12T07:02:23;5.53;;;2.20;;
29916;SDS011;16786;49.466;11.068;2022-07-12T07:04:51;4.30;;;1.50;;
29916;SDS011;16786;49.466;11.068;2022-07-12T07:07:18;2.72;;;1.50;;
29916;SDS011;16786;49.466;11.068;2022-07-12T07:09:46;5.38;;;2.00;;
29916;SDS011;16786;49.466;11.068;2022-07-12T07:12:13;3.95;;;1.98;;
29916;SDS011;16786;49.466;11.068;2022-07-12T07:14:40;6.32;;;2.88;;
29916;SDS011;16786;49.466;11.068;2022-07-12T07:17:08;4.32;;;1.45;;
29916;SDS011;16786;49.466;11.068;2022-07-12T07:19:38;5.53;;;1.50;;
29916;SDS011;16786;49.466;11.068;2022-07-12T07:22:05;2.58;;;1.30;;
29916;SDS011;16786;49.466;11.068;2022-07-12T07:24:33;4.43;;;1.45;;
29916;SDS011;16786;49.466;11.068;2022-07-12T07:27:00;4.07;;;1.42;;
29916;SDS011;16786;49.466;11.068;2022-07-12T07:29:27;2.28;;;1.45;;
29916;SDS011;16786;49.466;11.068;2022-07-12T07:32:13;4.05;;;1.60;;
29916;SDS011;16786;49.466;11.068;2022-07-12T07:34:40;3.25;;;1.38;;
29916;SDS011;16786;49.466;11.068;2022-07-12T07:37:08;3.15;;;1.50;;
29916;SDS011;16786;49.466;11.068;2022-07-12T07:39:36;2.65;;;1.35;;
29916;SDS011;16786;49.466;11.068;2022-07-12T07:42:03;3.75;;;1.50;;
29916;SDS011;16786;49.466;11.068;2022-07-12T07:44:31;4.07;;;1.63;;
29916;SDS011;16786;49.466;11.068;2022-07-12T07:46:59;2.10;;;1.30;;
29916;SDS011;16786;49.466;11.068;2022-07-12T07:49:27;9.38;;;1.90;;
29916;SDS011;16786;49.466;11.068;2022-07-12T07:51:55;4.25;;;2.33;;
29916;SDS011;16786;49.466;11.068;2022-07-12T07:54:22;3.95;;;1.70;;
29916;SDS011;16786;49.466;11.068;2022-07-12T07:56:49;2.35;;;1.52;;
29916;SDS011;16786;49.466;11.068;2022-07-12T07:59:17;2.67;;;1.70;;
29916;SDS011;16786;49.466;11.068;2022-07-12T08:01:44;2.50;;;1.38;;
29916;SDS011;16786;49.466;11.068;2022-07-12T08:04:12;4.30;;;1.50;;
29916;SDS011;16786;49.466;11.068;2022-07-12T08:06:45;2.17;;;1.35;;
29916;SDS011;16786;49.466;11.068;2022-07-12T08:09:13;3.38;;;1.55;;
29916;SDS011;16786;49.466;11.068;2022-07-12T08:11:41;3.53;;;1.40;;
29916;SDS011;16786;49.466;11.068;2022-07-12T08:14:09;3.35;;;1.25;;
29916;SDS011;16786;49.466;11.068;2022-07-12T08:16:37;2.15;;;1.27;;
29916;SDS011;16786;49.466;11.068;2022-07-12T08:19:04;5.25;;;1.50;;
29916;SDS011;16786;49.466;11.068;2022-07-12T08:21:32;2.50;;;1.20;;
29916;SDS011;16786;49.466;11.068;2022-07-12T08:24:00;2.33;;;1.30;;
29916;SDS011;16786;49.466;11.068;2022-07-12T08:26:27;3.28;;;1.40;;
29916;SDS011;16786;49.466;11.068;2022-07-12T08:28:54;2.65;;;1.10;;
29916;SDS011;16786;49.466;11.068;2022-07-12T08:31:22;2.33;;;1.23;;
29916;SDS011;16786;49.466;11.068;2022-07-12T08:33:49;2.63;;;1.00;;
29916;SDS011;16786;49.466;11.068;2022-07-12T08:36:18;2.25;;;1.00;;
29916;SDS011;16786;49.466;11.068;2022-07-12T08:38:45;3.28;;;1.10;;
29916;SDS011;16786;49.466;11.068;2022-07-12T08:41:12;2.17;;;1.00;;
29916;SDS011;16786;49.466;11.068;2022-07-12T08:43:41;2.58;;;1.02;;
29916;SDS011;16786;49.466;11.068;2022-07-12T08:46:10;1.90;;;1.10;;
29916;SDS011;16786;49.466;11.068;2022-07-12T08:48:41;4.00;;;1.13;;
29916;SDS011;16786;49.466;11.068;2022-07-12T08:51:10;2.50;;;1.08;;
29916;SDS011;16786;49.466;11.068;2022-07-12T08:53:39;4.25;;;0.98;;
29916;SDS011;16786;49.466;11.068;2022-07-12T08:56:08;2.42;;;1.30;;
29916;SDS011;16786;49.466;11.068;2022-07-12T08:59:08;2.22;;;1.10;;
29916;SDS011;16786;49.466;11.068;2022-07-12T09:01:54;3.03;;;1.10;;
29916;SDS011;16786;49.466;11.068;2022-07-12T09:04:22;1.77;;;0.90;;
29916;SDS011;16786;49.466;11.068;2022-07-12T09:06:57;4.60;;;1.20;;
29916;SDS011;16786;49.466;11.068;2022-07-12T09:09:41;3.13;;;1.13;;
29916;SDS011;16786;49.466;11.068;2022-07-12T09:12:21;2.30;;;1.00;;
29916;SDS011;16786;49.466;11.068;2022-07-12T09:14:52;2.60;;;1.15;;
29916;SDS011;16786;49.466;11.068;2022-07-12T09:17:22;3.42;;;0.98;;
29916;SDS011;16786;49.466;11.068;2022-07-12T09:19:56;3.65;;;1.13;;
29916;SDS011;16786;49.466;11.068;2022-07-12T09:22:23;4.25;;;1.30;;
29916;SDS011;16786;49.466;11.068;2022-07-12T09:24:51;2.95;;;1.20;;
29916;SDS011;16786;49.466;11.068;2022-07-12T09:27:23;3.65;;;1.20;;
29916;SDS011;16786;49.466;11.068;2022-07-12T09:29:52;1.55;;;0.80;;
29916;SDS011;16786;49.466;11.068;2022-07-12T09:32:25;2.70;;;0.90;;
29916;SDS011;16786;49.466;11.068;2022-07-12T09:35:11;1.90;;;0.88;;
29916;SDS011;16786;49.466;11.068;2022-07-12T09:38:07;1.67;;;0.80;;
29916;SDS011;16786;49.466;11.068;2022-07-12T09:40:36;2.05;;;0.98;;
29916;SDS011;16786;49.466;11.068;2022-07-12T09:43:03;2.85;;;1.00;;
29916;SDS011;16786;49.466;11.068;2022-07-12T09:45:32;2.80;;;0.90;;
29916;SDS011;16786;49.466;11.068;2022-07-12T09:47:59;2.03;;;1.00;;
29916;SDS011;16786;49.466;11.068;2022-07-12T09:50:29;1.60;;;1.10;;
29916;SDS011;16786;49.466;11.068;2022-07-12T09:52:58;1.40;;;0.95;;
29916;SDS011;16786;49.466;11.068;2022-07-12T09:55:35;2.53;;;0.80;;
29916;SDS011;16786;49.466;11.068;2022-07-12T09:58:04;4.85;;;1.05;;
29916;SDS011;16786;49.466;11.068;2022-07-12T10:00:34;3.67;;;1.02;;
29916;SDS011;16786;49.466;11.068;2022-07-12T10:03:03;1.52;;;0.80;;
29916;SDS011;16786;49.466;11.068;2022-07-12T10:05:31;2.13;;;1.00;;
29916;SDS011;16786;49.466;11.068;2022-07-12T10:08:01;1.05;;;0.75;;
29916;SDS011;16786;49.466;11.068;2022-07-12T10:10:32;1.23;;;0.60;;
29916;SDS011;16786;49.466;11.068;2022-07-12T10:13:01;1.75;;;0.90;;
29916;SDS011;16786;49.466;11.068;2022-07-12T10:15:29;3.88;;;1.05;;
29916;SDS011;16786;49.466;11.068;2022-07-12T10:17:59;2.15;;;0.55;;
29916;SDS011;16786;49.466;11.068;2022-07-12T10:20:27;0.90;;;0.70;;
29916;SDS011;16786;49.466;11.068;2022-07-12T10:22:55;1.45;;;0.77;;
29916;SDS011;16786;49.466;11.068;2022-07-12T10:25:43;2.35;;;1.10;;
29916;SDS011;16786;49.466;11.068;2022-07-12T10:28:10;1.48;;;0.80;;
29916;SDS011;16786;49.466;11.068;2022-07-12T10:30:41;1.88;;;0.90;;
29916;SDS011;16786;49.466;11.068;2022-07-12T10:33:14;1.20;;;0.80;;
29916;SDS011;16786;49.466;11.068;2022-07-12T10:35:57;2.10;;;1.00;;
29916;SDS011;16786;49.466;11.068;2022-07-12T10:38:28;5.68;;;2.13;;
29916;SDS011;16786;49.466;11.068;2022-07-12T10:40:55;2.58;;;0.90;;
29916;SDS011;16786;49.466;11.068;2022-07-12T10:43:24;1.60;;;0.93;;
29916;SDS011;16786;49.466;11.068;2022-07-12T10:46:18;1.35;;;0.90;;
29916;SDS011;16786;49.466;11.068;2022-07-12T10:48:51;0.98;;;0.73;;
29916;SDS011;16786;49.466;11.068;2022-07-12T10:51:38;1.13;;;0.73;;
29916;SDS011;16786;49.466;11.068;2022-07-12T10:54:21;2.42;;;0.70;;
29916;SDS011;16786;49.466;11.068;2022-07-12T10:56:55;1.38;;;0.80;;
29916;SDS011;16786;49.466;11.068;2022-07-12T10:59:23;2.83;;;0.80;;
29916;SDS011;16786;49.466;11.068;2022-07-12T11:01:55;1.92;;;0.73;;
29916;SDS011;16786;49.466;11.068;2022-07-12T11:04:22;0.80;;;0.60;;
29916;SDS011;16786;49.466;11.068;2022-07-12T11:06:50;1.13;;;0.77;;
29916;SDS011;16786;49.466;11.068;2022-07-12T11:11:51;1.60;;;0.82;;
29916;SDS011;16786;49.466;11.068;2022-07-12T11:14:26;1.55;;;0.70;;
29916;SDS011;16786;49.466;11.068;2022-07-12T11:16:56;1.75;;;0.88;;
29916;SDS011;16786;49.466;11.068;2022-07-12T11:19:25;3.03;;;0.88;;
29916;SDS011;16786;49.466;11.068;2022-07-12T11:21:57;1.60;;;1.10;;
29916;SDS011;16786;49.466;11.068;2022-07-12T11:24:26;2.03;;;0.90;;
29916;SDS011;16786;49.466;11.068;2022-07-12T11:26:55;1.02;;;0.80;;
29916;SDS011;16786;49.466;11.068;2022-07-12T11:29:23;1.40;;;0.70;;
29916;SDS011;16786;49.466;11.068;2022-07-12T11:32:01;3.97;;;1.30;;
29916;SDS011;16786;49.466;11.068;2022-07-12T11:34:37;1.73;;;0.77;;
29916;SDS011;16786;49.466;11.068;2022-07-12T11:37:05;2.97;;;0.90;;
29916;SDS011;16786;49.466;11.068;2022-07-12T11:42:00;2.50;;;0.73;;
29916;SDS011;16786;49.466;11.068;2022-07-12T11:44:44;1.27;;;0.60;;
29916;SDS011;16786;49.466;11.068;2022-07-12T11:47:12;1.13;;;0.60;;
29916;SDS011;16786;49.466;11.068;2022-07-12T11:52:19;2.22;;;1.40;;
29916;SDS011;16786;49.466;11.068;2022-07-12T11:54:48;6.90;;;1.02;;
29916;SDS011;16786;49.466;11.068;2022-07-12T11:57:21;2.20;;;0.70;;
29916;SDS011;16786;49.466;11.068;2022-07-12T11:59:52;1.77;;;0.80;;
29916;SDS011;16786;49.466;11.068;2022-07-12T12:02:20;2.35;;;0.70;;
29916;SDS011;16786;49.466;11.068;2022-07-12T12:04:51;1.67;;;0.70;;
29916;SDS011;16786;49.466;11.068;2022-07-12T12:07:22;3.70;;;0.63;;
29916;SDS011;16786;49.466;11.068;2022-07-12T12:12:43;1.00;;;0.68;;
29916;SDS011;16786;49.466;11.068;2022-07-12T12:15:16;2.60;;;0.77;;
29916;SDS011;16786;49.466;11.068;2022-07-12T12:20:18;1.38;;;0.60;;
29916;SDS011;16786;49.466;11.068;2022-07-12T12:22:48;2.28;;;0.80;;
29916;SDS011;16786;49.466;11.068;2022-07-12T12:25:17;1.90;;;0.82;;
29916;SDS011;16786;49.466;11.068;2022-07-12T12:27:48;2.75;;;0.90;;
29916;SDS011;16786;49.466;11.068;2022-07-12T12:30:49;3.00;;;0.70;;
29916;SDS011;16786;49.466;11.068;2022-07-12T12:33:33;2.47;;;0.57;;
29916;SDS011;16786;49.466;11.068;2022-07-12T12:36:17;1.92;;;0.82;;
29916;SDS011;16786;49.466;11.068;2022-07-12T12:38:57;0.98;;;0.68;;
29916;SDS011;16786;49.466;11.068;2022-07-12T12:41:28;1.38;;;0.65;;
29916;SDS011;16786;49.466;11.068;2022-07-12T12:44:00;2.72;;;1.00;;
29916;SDS011;16786;49.466;11.068;2022-07-12T12:49:46;1.25;;;0.75;;
29916;SDS011;16786;49.466;11.068;2022-07-12T12:52:23;1.52;;;0.70;;
29916;SDS011;16786;49.466;11.068;2022-07-12T12:54:53;1.55;;;0.80;;
29916;SDS011;16786;49.466;11.068;2022-07-12T12:57:20;3.17;;;0.80;;
29916;SDS011;16786;49.466;11.068;2022-07-12T12:59:52;3.08;;;0.50;;
29916;SDS011;16786;49.466;11.068;2022-07-12T13:02:20;2.00;;;0.70;;
29916;SDS011;16786;49.466;11.068;2022-07-12T13:04:51;5.80;;;0.75;;
29916;SDS011;16786;49.466;11.068;2022-07-12T13:07:18;1.33;;;0.77;;
29916;SDS011;16786;49.466;11.068;2022-07-12T13:09:45;2.08;;;0.70;;
29916;SDS011;16786;49.466;11.068;2022-07-12T13:12:13;1.98;;;0.77;;
29916;SDS011;16786;49.466;11.068;2022-07-12T13:14:40;2.13;;;0.82;;
29916;SDS011;16786;49.466;11.068;2022-07-12T13:17:07;3.60;;;0.73;;
29916;SDS011;16786;49.466;11.068;2022-07-12T13:19:35;2.08;;;0.60;;
29916;SDS011;16786;49.466;11.068;2022-07-12T13:22:04;4.07;;;0.80;;
29916;SDS011;16786;49.466;11.068;2022-07-12T13:24:32;3.13;;;0.63;;
29916;SDS011;16786;49.466;11.068;2022-07-12T13:27:00;0.85;;;0.70;;
29916;SDS011;16786;49.466;11.068;2022-07-12T13:29:27;2.72;;;0.70;;
29916;SDS011;16786;49.466;11.068;2022-07-12T13:31:55;1.70;;;0.63;;
29916;SDS011;16786;49.466;11.068;2022-07-12T13:34:23;1.85;;;0.88;;
29916;SDS011;16786;49.466;11.068;2022-07-12T13:36:50;4.80;;;0.73;;
29916;SDS011;16786;49.466;11.068;2022-07-12T13:39:18;0.93;;;0.50;;
29916;SDS011;16786;49.466;11.068;2022-07-12T13:42:04;1.90;;;0.82;;
29916;SDS011;16786;49.466;11.068;2022-07-12T13:44:31;1.17;;;0.60;;
29916;SDS011;16786;49.466;11.068;2022-07-12T13:46:59;3.50;;;0.60;;
29916;SDS011;16786;49.466;11.068;2022-07-12T13:49:26;3.78;;;0.77;;
29916;SDS011;16786;49.466;11.068;2022-07-12T13:51:53;1.75;;;0.80;;
29916;SDS011;16786;49.466;11.068;2022-07-12T13:54:21;1.25;;;0.70;;
29916;SDS011;16786;49.466;11.068;2022-07-12T13:56:48;1.40;;;0.63;;
29916;SDS011;16786;49.466;11.068;2022-07-12T13:59:18;3.00;;;0.80;;
29916;SDS011;16786;49.466;11.068;2022-07-12T14:01:45;0.52;;;0.45;;
29916;SDS011;16786;49.466;11.068;2022-07-12T14:04:13;3.50;;;0.80;;
29916;SDS011;16786;49.466;11.068;2022-07-12T14:06:40;2.13;;;0.60;;
29916;SDS011;16786;49.466;11.068;2022-07-12T14:09:07;1.38;;;0.60;;
29916;SDS011;16786;49.466;11.068;2022-07-12T14:11:35;1.50;;;0.60;;
29916;SDS011;16786;49.466;11.068;2022-07-12T14:14:02;2.10;;;0.60;;
29916;SDS011;16786;49.466;11.068;2022-07-12T14:16:29;1.55;;;0.55;;
29916;SDS011;16786;49.466;11.068;2022-07-12T14:18:57;1.77;;;0.50;;
29916;SDS011;16786;49.466;11.068;2022-07-12T14:21:26;1.00;;;0.70;;
29916;SDS011;16786;49.466;11.068;2022-07-12T14:23:54;0.43;;;0.43;;
29916;SDS011;16786;49.466;11.068;2022-07-12T14:26:21;3.35;;;0.70;;
29916;SDS011;16786;49.466;11.068;2022-07-12T14:28:48;0.70;;;0.47;;
29916;SDS011;16786;49.466;11.068;2022-07-12T14:31:19;1.38;;;0.50;;
29916;SDS011;16786;49.466;11.068;2022-07-12T14:33:46;1.75;;;0.40;;
29916;SDS011;16786;49.466;11.068;2022-07-12T14:36:14;1.17;;;0.50;;
29916;SDS011;16786;49.466;11.068;2022-07-12T14:38:41;1.77;;;0.50;;
29916;SDS011;16786;49.466;11.068;2022-07-12T14:41:08;1.45;;;0.50;;
29916;SDS011;16786;49.466;11.068;2022-07-12T14:43:36;1.52;;;0.68;;
29916;SDS011;16786;49.466;11.068;2022-07-12T14:46:04;1.50;;;0.60;;
29916;SDS011;16786;49.466;11.068;2022-07-12T14:48:31;0.77;;;0.52;;
29916;SDS011;16786;49.466;11.068;2022-07-12T14:50:58;2.20;;;0.60;;
29916;SDS011;16786;49.466;11.068;2022-07-12T14:53:26;2.10;;;0.60;;
29916;SDS011;16786;49.466;11.068;2022-07-12T14:55:53;1.58;;;0.77;;
29916;SDS011;16786;49.466;11.068;2022-07-12T14:58:20;2.10;;;0.88;;
29916;SDS011;16786;49.466;11.068;2022-07-12T15:00:48;2.95;;;0.60;;